Time;durP1;ratioP1;P1;durP2;ratioP2;P2;SDS_P1;SDS_P2;PMS_P1;PMS_P2;Temp;Humidity;BMP_temperature;BMP_pressure;BME280_temperature;BME280_humidity;BME280_pressure;Samples;Min_cycle;Max_cycle;Signal;HPM_P1;HPM_P2
2022/08/12 00:42:59;;;;;;;2.83;2.20;;;20.50;97.50;;;;;;5054527;28;20487;-77
2022/08/12 00:46:29;;;;;;;3.23;2.40;;;20.40;97.90;;;;;;5061097;28;20528;-73
2022/08/12 00:48:22;;;;;;;4.47;2.23;;;20.40;98.00;;;;;;5059190;28;20849;-74
2022/08/12 00:50:52;;;;;;;3.57;2.20;;;20.40;98.10;;;;;;5048523;28;20479;-74
2022/08/12 00:53:20;;;;;;;2.73;2.10;;;20.30;98.10;;;;;;5048662;28;20483;-74
2022/08/12 00:55:49;;;;;;;3.27;2.07;;;20.30;98.30;;;;;;5040528;28;20550;-76
2022/08/12 00:58:21;;;;;;;3.10;2.53;;;20.30;98.40;;;;;;5047427;28;20454;-76
2022/08/12 01:00:50;;;;;;;3.70;2.10;;;20.30;98.50;;;;;;5049933;28;20517;-77
2022/08/12 01:03:21;;;;;;;10.23;2.20;;;20.20;98.70;;;;;;5051068;28;20566;-74
2022/08/12 01:14:01;;;;;;;5.50;2.70;;;20.20;99.90;;;;;;5045672;28;20913;-74
2022/08/12 01:16:28;;;;;;;4.30;3.00;;;20.10;99.90;;;;;;5044571;28;20449;-74
2022/08/12 01:18:59;;;;;;;3.27;2.63;;;20.10;99.90;;;;;;5043741;28;20494;-75
2022/08/12 01:22:10;;;;;;;4.17;2.73;;;20.10;99.90;;;;;;5044792;28;20451;-77
2022/08/12 01:25:06;;;;;;;4.27;2.50;;;20.00;99.90;;;;;;5052028;28;20970;-73
2022/08/12 01:27:34;;;;;;;5.03;3.20;;;20.00;99.90;;;;;;5040800;28;20534;-76
2022/08/12 01:30:12;;;;;;;5.67;2.50;;;20.00;99.90;;;;;;5032420;28;20489;-74
2022/08/12 01:32:40;;;;;;;3.90;2.93;;;19.90;99.90;;;;;;5041007;28;20516;-74
2022/08/12 01:35:10;;;;;;;3.40;2.53;;;19.90;99.90;;;;;;5041785;28;20872;-76
2022/08/12 01:37:47;;;;;;;2.87;2.37;;;19.80;99.90;;;;;;5047559;28;20456;-73
2022/08/12 01:40:16;;;;;;;3.07;2.33;;;19.80;99.90;;;;;;5036933;28;20526;-75
2022/08/12 01:42:51;;;;;;;5.03;2.33;;;19.70;99.90;;;;;;5050378;28;20472;-76
2022/08/12 01:45:23;;;;;;;3.10;2.57;;;19.70;99.90;;;;;;5050010;28;20794;-75
2022/08/12 01:48:03;;;;;;;2.63;2.00;;;19.70;99.90;;;;;;5035790;28;20939;-74
2022/08/12 01:50:42;;;;;;;5.33;3.00;;;19.70;99.90;;;;;;5042110;28;20470;-74
2022/08/12 01:53:11;;;;;;;3.20;2.60;;;19.60;99.90;;;;;;5045597;28;20541;-74
2022/08/12 01:55:43;;;;;;;3.00;2.00;;;19.60;99.90;;;;;;5040857;28;20442;-74
2022/08/12 01:58:19;;;;;;;3.20;2.83;;;19.60;99.90;;;;;;5055012;28;20570;-75
2022/08/12 02:00:57;;;;;;;4.90;3.93;;;19.50;99.90;;;;;;5055922;28;20521;-75
2022/08/12 02:12:46;;;;;;;4.80;2.97;;;19.40;99.90;;;;;;5059531;28;20459;-74
2022/08/12 02:15:20;;;;;;;3.83;3.30;;;19.30;99.90;;;;;;5047775;28;20481;-74
2022/08/12 02:18:00;;;;;;;4.33;2.73;;;19.20;99.90;;;;;;5047484;28;20443;-74
2022/08/12 02:20:33;;;;;;;3.40;2.93;;;19.20;99.90;;;;;;5042919;28;20449;-76
2022/08/12 02:23:02;;;;;;;3.53;2.93;;;19.10;99.90;;;;;;5052570;28;20549;-76
2022/08/12 02:25:33;;;;;;;5.40;3.17;;;19.10;99.90;;;;;;5052920;28;20461;-76
2022/08/12 02:28:02;;;;;;;5.53;3.17;;;19.00;99.90;;;;;;5045777;28;20447;-76
2022/08/12 02:30:31;;;;;;;4.37;3.60;;;19.00;99.90;;;;;;5049912;28;20559;-75
2022/08/12 02:33:01;;;;;;;6.60;3.83;;;18.90;99.90;;;;;;5053740;28;20555;-77
2022/08/12 02:35:31;;;;;;;4.10;3.80;;;18.90;99.90;;;;;;5047785;28;20553;-73
2022/08/12 02:37:59;;;;;;;3.97;3.13;;;18.90;99.90;;;;;;5054908;28;20906;-74
2022/08/12 02:40:28;;;;;;;3.57;3.27;;;18.90;99.90;;;;;;5050563;28;20875;-75
2022/08/12 02:42:59;;;;;;;4.57;2.90;;;18.90;99.90;;;;;;5047992;28;20498;-77
2022/08/12 02:45:38;;;;;;;3.33;2.70;;;19.00;99.90;;;;;;5045677;28;20498;-74
2022/08/12 02:48:09;;;;;;;4.53;2.93;;;19.00;99.90;;;;;;5068553;28;20449;-73
2022/08/12 02:50:40;;;;;;;3.50;3.20;;;19.00;99.90;;;;;;5047449;28;20834;-75
2022/08/12 02:53:09;;;;;;;3.50;2.93;;;19.00;99.90;;;;;;5043873;28;20467;-75
2022/08/12 02:55:36;;;;;;;4.53;2.73;;;18.90;99.90;;;;;;5047256;28;21040;-75
2022/08/12 02:58:08;;;;;;;4.57;3.87;;;18.90;99.90;;;;;;5044075;28;20446;-76
2022/08/12 03:00:37;;;;;;;4.60;3.03;;;18.80;99.90;;;;;;5043620;28;20450;-75
2022/08/12 03:03:06;;;;;;;3.30;2.97;;;18.80;99.90;;;;;;5043062;28;20838;-75
2022/08/12 03:05:35;;;;;;;3.00;2.77;;;18.80;99.90;;;;;;5051324;28;20450;-73
2022/08/12 03:08:04;;;;;;;5.37;3.53;;;18.70;99.90;;;;;;5045999;28;20431;-75
2022/08/12 03:10:38;;;;;;;4.30;3.30;;;18.80;99.90;;;;;;5044509;28;20485;-76
2022/08/12 03:13:07;;;;;;;5.03;3.23;;;18.70;99.90;;;;;;5041947;28;20479;-76
2022/08/12 03:15:36;;;;;;;4.53;3.60;;;18.60;99.90;;;;;;5047655;28;20873;-74
2022/08/12 03:18:13;;;;;;;4.17;2.90;;;18.60;99.90;;;;;;5050924;28;20806;-74
2022/08/12 03:20:41;;;;;;;9.73;3.33;;;18.60;99.90;;;;;;5058051;28;20453;-74
2022/08/12 03:23:11;;;;;;;4.23;2.70;;;18.60;99.90;;;;;;5046547;28;20474;-74
2022/08/12 03:25:39;;;;;;;4.07;3.67;;;18.60;99.90;;;;;;5040865;28;20447;-75
2022/08/12 03:28:09;;;;;;;4.53;3.97;;;18.50;99.90;;;;;;5051206;28;20529;-75
2022/08/12 03:30:39;;;;;;;5.97;5.37;;;18.50;99.90;;;;;;5049305;28;21688;-75
2022/08/12 03:33:08;;;;;;;6.10;5.50;;;18.50;99.90;;;;;;5048816;28;20474;-76
2022/08/12 03:35:36;;;;;;;8.73;5.63;;;18.50;99.90;;;;;;5043756;28;20458;-75
2022/08/12 03:38:05;;;;;;;5.87;5.23;;;18.40;99.90;;;;;;5045782;28;20956;-76
2022/08/12 04:00:22;;;;;;;4.77;3.97;;;18.30;99.90;;;;;;5047919;28;20477;-76
2022/08/12 04:02:54;;;;;;;5.93;3.60;;;18.30;99.90;;;;;;5046876;28;20473;-77
2022/08/12 04:05:22;;;;;;;5.03;3.50;;;18.30;99.90;;;;;;5047263;28;20466;-72
2022/08/12 04:07:50;;;;;;;6.37;4.00;;;18.30;99.90;;;;;;5060408;28;20525;-74
2022/08/12 04:10:17;;;;;;;4.10;3.40;;;18.30;99.90;;;;;;5047041;28;20511;-76
2022/08/12 04:15:31;;;;;;;3.40;3.03;;;18.40;99.90;;;;;;5046018;28;20423;-75
2022/08/12 04:18:00;;;;;;;7.30;4.10;;;18.40;99.90;;;;;;5045697;28;20474;-76
2022/08/12 04:20:28;;;;;;;5.83;3.60;;;18.40;99.90;;;;;;5034206;28;20438;-76
2022/08/12 04:22:55;;;;;;;4.70;3.53;;;18.30;99.90;;;;;;5046881;28;20493;-77
2022/08/12 04:25:25;;;;;;;4.63;4.10;;;18.40;99.90;;;;;;5042270;28;20454;-75
2022/08/12 04:27:53;;;;;;;5.00;3.60;;;18.40;99.90;;;;;;5048207;28;20446;-76
2022/08/12 04:30:22;;;;;;;6.60;3.90;;;18.50;99.90;;;;;;5037544;28;20477;-76
2022/08/12 04:32:51;;;;;;;7.80;4.40;;;18.50;99.90;;;;;;5045249;28;20473;-76
2022/08/12 04:35:20;;;;;;;6.93;4.00;;;18.50;99.90;;;;;;5040264;28;20513;-75
2022/08/12 04:37:52;;;;;;;4.27;3.37;;;18.50;99.90;;;;;;5048341;28;20879;-74
2022/08/12 04:40:20;;;;;;;7.47;3.57;;;18.50;99.90;;;;;;5041826;28;20501;-73
2022/08/12 04:42:47;;;;;;;3.87;3.50;;;18.60;99.90;;;;;;5042764;28;20846;-71
2022/08/12 04:45:14;;;;;;;5.63;3.80;;;18.60;99.90;;;;;;5043301;28;20465;-71
2022/08/12 04:47:41;;;;;;;4.83;4.43;;;18.60;99.90;;;;;;5040616;28;20447;-70
2022/08/12 04:50:09;;;;;;;8.47;4.27;;;18.70;99.90;;;;;;5036917;28;20551;-71
2022/08/12 04:52:37;;;;;;;4.87;4.17;;;18.70;99.90;;;;;;5035955;28;20482;-71
2022/08/12 04:55:05;;;;;;;4.67;4.27;;;18.70;99.90;;;;;;5039777;28;20499;-74
2022/08/12 04:57:32;;;;;;;9.30;3.80;;;18.80;99.90;;;;;;5045417;28;20448;-77
2022/08/12 05:00:00;;;;;;;4.97;4.20;;;18.90;99.90;;;;;;5040466;28;20464;-75
2022/08/12 05:02:27;;;;;;;5.53;3.40;;;19.00;99.90;;;;;;5042129;28;20918;-74
2022/08/12 05:04:55;;;;;;;5.47;4.20;;;19.30;99.90;;;;;;5033268;28;20973;-73
2022/08/12 05:07:22;;;;;;;7.17;4.00;;;20.10;99.90;;;;;;5045670;28;20459;-72
2022/08/12 05:09:51;;;;;;;5.20;3.37;;;21.10;99.90;;;;;;5040113;28;20477;-74
2022/08/12 05:12:18;;;;;;;7.60;3.73;;;22.30;99.90;;;;;;5034709;28;20828;-73
2022/08/12 05:14:45;;;;;;;3.60;3.03;;;23.30;98.10;;;;;;5048222;28;20802;-75
2022/08/12 05:17:12;;;;;;;3.50;3.20;;;24.40;95.20;;;;;;5041791;28;20929;-75
2022/08/12 05:19:41;;;;;;;5.90;2.90;;;25.20;92.80;;;;;;5042169;28;20476;-75
2022/08/12 05:22:08;;;;;;;6.40;3.70;;;26.10;91.70;;;;;;5052506;28;20446;-75
2022/08/12 05:24:35;;;;;;;3.33;2.97;;;26.80;90.00;;;;;;5042335;28;20554;-77
2022/08/12 05:27:03;;;;;;;6.30;2.70;;;27.20;87.70;;;;;;5046924;28;20445;-76
2022/08/12 05:29:30;;;;;;;5.13;2.90;;;27.70;84.90;;;;;;5050364;28;20449;-75
2022/08/12 05:31:58;;;;;;;3.23;2.90;;;28.10;83.30;;;;;;5049324;28;20525;-76
2022/08/12 05:34:27;;;;;;;4.50;3.37;;;28.60;82.00;;;;;;5047561;28;20477;-75
2022/08/12 05:36:54;;;;;;;5.33;3.60;;;29.00;79.30;;;;;;5046573;28;20510;-76
2022/08/12 05:39:21;;;;;;;3.27;2.97;;;29.50;78.40;;;;;;5041821;28;20447;-75
2022/08/12 05:41:48;;;;;;;5.07;3.10;;;29.90;76.30;;;;;;5044081;28;20427;-75
2022/08/12 05:44:17;;;;;;;4.53;2.87;;;30.30;74.80;;;;;;5060773;28;20544;-75
2022/08/12 05:46:44;;;;;;;5.10;2.83;;;30.60;74.30;;;;;;5061171;28;20499;-75
2022/08/12 05:49:11;;;;;;;6.37;2.90;;;30.70;72.20;;;;;;5043580;28;20474;-76
2022/08/12 05:51:39;;;;;;;4.60;2.73;;;30.90;72.20;;;;;;5049973;28;20490;-76
2022/08/12 05:54:06;;;;;;;4.63;2.73;;;31.40;71.00;;;;;;5051529;28;20473;-74
2022/08/12 05:56:35;;;;;;;3.87;2.90;;;31.70;70.00;;;;;;5054527;28;20450;-75
2022/08/12 05:59:06;;;;;;;3.10;2.80;;;31.80;68.70;;;;;;5045063;28;20536;-76
2022/08/12 06:01:35;;;;;;;6.23;2.50;;;31.90;68.20;;;;;;5054578;28;20491;-76
2022/08/12 06:04:02;;;;;;;3.33;2.77;;;32.30;66.80;;;;;;5055682;28;20521;-75
2022/08/12 06:06:34;;;;;;;10.67;3.30;;;32.70;66.40;;;;;;5055504;28;20499;-78
2022/08/12 06:09:01;;;;;;;6.43;2.60;;;33.00;65.00;;;;;;5053472;28;20481;-75
2022/08/12 06:11:28;;;;;;;3.90;2.50;;;33.20;64.10;;;;;;5051643;28;20474;-74
2022/08/12 06:13:57;;;;;;;4.83;3.17;;;33.50;63.10;;;;;;5041598;28;20471;-75
2022/08/12 06:16:25;;;;;;;3.17;2.87;;;33.60;62.30;;;;;;5047778;28;20931;-75
2022/08/12 06:18:54;;;;;;;4.47;2.90;;;33.50;61.40;;;;;;5046539;28;20442;-75
2022/08/12 06:21:22;;;;;;;3.27;2.97;;;33.40;61.50;;;;;;5044068;28;20442;-75
2022/08/12 06:23:50;;;;;;;4.20;2.87;;;33.60;61.60;;;;;;5047578;28;20881;-76
2022/08/12 06:26:19;;;;;;;6.70;2.80;;;33.90;60.70;;;;;;5043756;28;20872;-76
2022/08/12 06:28:49;;;;;;;3.57;3.10;;;34.00;60.00;;;;;;5044650;28;20797;-76
2022/08/12 06:31:18;;;;;;;4.60;3.20;;;33.60;60.00;;;;;;5046685;28;21052;-76
2022/08/12 06:33:47;;;;;;;5.93;3.13;;;34.10;59.80;;;;;;5047892;28;20462;-77
2022/08/12 06:36:18;;;;;;;3.37;3.07;;;34.10;59.00;;;;;;5053468;28;20454;-75
2022/08/12 06:38:46;;;;;;;7.13;2.80;;;34.40;58.50;;;;;;5048494;28;20921;-75
2022/08/12 06:43:58;;;;;;;5.30;3.40;;;34.60;57.60;;;;;;5047347;28;20492;-75
2022/08/12 06:46:27;;;;;;;4.97;3.23;;;35.00;57.10;;;;;;5047317;28;20522;-77
2022/08/12 06:48:57;;;;;;;3.27;2.23;;;35.20;56.40;;;;;;5044956;28;20442;-74
2022/08/12 06:51:28;;;;;;;7.10;3.67;;;35.40;56.10;;;;;;5047845;28;20474;-74
2022/08/12 06:53:56;;;;;;;6.17;4.03;;;35.80;54.60;;;;;;5043538;28;20561;-77
2022/08/12 06:56:24;;;;;;;7.13;3.80;;;36.40;54.30;;;;;;5048201;28;20454;-74
2022/08/12 06:58:51;;;;;;;4.00;3.33;;;36.70;53.00;;;;;;5044767;28;20541;-76
2022/08/12 07:01:18;;;;;;;3.33;2.73;;;36.70;52.60;;;;;;5054322;28;20533;-74
2022/08/12 07:03:45;;;;;;;4.73;4.27;;;36.40;52.50;;;;;;5049374;28;20497;-77
2022/08/12 07:06:12;;;;;;;4.40;3.93;;;36.70;51.70;;;;;;5061189;28;20462;-74
2022/08/12 07:08:43;;;;;;;3.77;3.47;;;36.80;50.80;;;;;;5052588;28;20486;-74
2022/08/12 07:11:12;;;;;;;5.20;3.27;;;36.70;51.10;;;;;;5042987;28;20502;-75
2022/08/12 07:13:42;;;;;;;5.30;3.73;;;37.50;50.30;;;;;;5051328;28;20993;-76
2022/08/12 07:16:12;;;;;;;25.60;22.50;;;37.10;50.60;;;;;;5049749;28;20533;-74
2022/08/12 07:18:39;;;;;;;6.13;4.40;;;36.70;50.70;;;;;;5053999;28;20468;-75
2022/08/12 07:21:08;;;;;;;3.80;3.20;;;37.40;50.40;;;;;;5058050;28;20469;-73
2022/08/12 07:23:36;;;;;;;3.47;3.17;;;38.00;49.50;;;;;;5052841;28;20907;-75
2022/08/12 07:26:07;;;;;;;4.97;4.57;;;38.10;49.10;;;;;;5051306;28;20489;-75
2022/08/12 07:28:37;;;;;;;11.60;3.37;;;38.00;48.40;;;;;;5056849;28;20464;-76
2022/08/12 07:31:07;;;;;;;5.40;3.70;;;37.30;49.20;;;;;;5048483;28;21006;-75
2022/08/12 07:33:37;;;;;;;8.63;3.50;;;37.10;50.10;;;;;;5061668;28;20476;-75
2022/08/12 07:36:06;;;;;;;8.03;4.70;;;37.30;49.70;;;;;;5042723;28;20509;-74
2022/08/12 07:38:35;;;;;;;6.30;3.73;;;37.30;49.00;;;;;;5052880;28;20791;-74
2022/08/12 07:41:09;;;;;;;6.17;3.70;;;36.80;50.00;;;;;;5043683;28;20629;-75
2022/08/12 07:43:38;;;;;;;7.40;3.33;;;37.30;49.70;;;;;;5047193;28;20472;-76
2022/08/12 07:46:06;;;;;;;4.17;3.37;;;37.70;48.80;;;;;;5060876;28;20450;-74
2022/08/12 07:48:38;;;;;;;5.83;3.70;;;37.40;49.10;;;;;;5044519;28;20454;-75
2022/08/12 07:51:05;;;;;;;6.97;4.10;;;37.30;49.00;;;;;;5047436;28;21073;-75
2022/08/12 07:53:33;;;;;;;8.73;3.53;;;37.30;48.80;;;;;;5044159;28;20525;-77
2022/08/12 07:56:00;;;;;;;9.23;4.10;;;37.50;48.60;;;;;;5056972;28;20452;-75
2022/08/12 07:58:29;;;;;;;4.70;3.60;;;37.60;48.60;;;;;;5049078;28;20485;-74
2022/08/12 08:00:59;;;;;;;8.90;5.40;;;38.30;48.10;;;;;;5056811;28;20455;-75
2022/08/12 08:03:26;;;;;;;20.23;17.27;;;38.40;47.60;;;;;;5042398;28;20489;-73
2022/08/12 08:05:54;;;;;;;8.37;4.40;;;37.70;46.90;;;;;;5058701;28;20569;-74
2022/08/12 08:08:22;;;;;;;3.93;3.40;;;38.40;46.20;;;;;;5048091;28;20460;-74
2022/08/12 08:10:50;;;;;;;7.50;3.93;;;39.30;45.20;;;;;;5047341;28;20871;-73
2022/08/12 08:13:17;;;;;;;10.40;5.93;;;39.50;44.80;;;;;;5055088;28;21028;-74
2022/08/12 08:15:46;;;;;;;8.53;5.17;;;39.50;44.40;;;;;;5059304;28;20516;-73
2022/08/12 08:18:15;;;;;;;4.50;3.60;;;39.60;44.20;;;;;;5058940;28;20533;-74
2022/08/12 08:20:43;;;;;;;6.87;4.80;;;39.10;44.50;;;;;;5040163;28;20942;-74
2022/08/12 08:23:12;;;;;;;6.70;4.30;;;39.00;44.50;;;;;;5049869;28;21024;-74
2022/08/12 08:25:40;;;;;;;5.40;4.50;;;39.00;44.20;;;;;;5046820;28;20446;-76
2022/08/12 08:28:09;;;;;;;7.60;4.60;;;39.10;44.30;;;;;;5055649;28;20450;-74
2022/08/12 08:30:39;;;;;;;4.97;3.77;;;39.20;44.20;;;;;;5048870;28;20481;-74
2022/08/12 08:33:11;;;;;;;7.37;4.50;;;40.20;43.20;;;;;;5040655;28;20596;-76
2022/08/12 08:35:38;;;;;;;7.63;4.83;;;39.70;42.10;;;;;;5041803;28;20451;-75
2022/08/12 08:38:12;;;;;;;6.17;4.27;;;39.80;42.60;;;;;;5047152;28;20846;-75
2022/08/12 08:43:26;;;;;;;4.80;3.97;;;40.50;41.80;;;;;;5047898;28;20793;-73
2022/08/12 08:45:54;;;;;;;4.40;3.70;;;40.30;41.90;;;;;;5044939;28;20954;-74
2022/08/12 08:48:23;;;;;;;6.70;4.00;;;40.30;41.90;;;;;;5042892;28;20796;-73
2022/08/12 08:50:50;;;;;;;5.03;4.03;;;40.00;42.10;;;;;;5054151;28;20624;-73
2022/08/12 08:53:18;;;;;;;5.97;4.13;;;40.40;42.20;;;;;;5041833;28;20972;-74
2022/08/12 08:55:45;;;;;;;4.00;3.07;;;40.50;41.90;;;;;;5048011;28;20438;-76
2022/08/12 08:58:12;;;;;;;31.90;29.00;;;41.20;41.00;;;;;;5045365;28;20529;-75
2022/08/12 09:00:39;;;;;;;7.40;5.50;;;41.60;40.80;;;;;;5043084;28;20809;-74
2022/08/12 09:03:07;;;;;;;7.80;4.90;;;41.40;39.90;;;;;;5043049;28;20848;-74
2022/08/12 09:05:35;;;;;;;19.40;15.23;;;41.00;39.30;;;;;;5044951;28;20458;-76
2022/08/12 09:08:04;;;;;;;6.43;4.83;;;40.80;39.60;;;;;;5033319;28;20439;-74
2022/08/12 09:10:33;;;;;;;8.63;4.73;;;40.90;39.30;;;;;;5041648;28;20762;-73
2022/08/12 09:15:45;;;;;;;10.73;7.77;;;41.00;38.70;;;;;;5037291;28;20508;-75
2022/08/12 09:18:14;;;;;;;8.40;6.20;;;41.00;38.80;;;;;;5044384;28;20450;-73
2022/08/12 09:20:43;;;;;;;4.00;3.50;;;41.00;38.30;;;;;;5042787;28;20441;-74
2022/08/12 09:23:12;;;;;;;5.10;4.60;;;40.80;38.90;;;;;;5043994;28;20892;-73
2022/08/12 09:25:40;;;;;;;6.67;3.67;;;40.50;39.10;;;;;;5044160;28;20519;-75
2022/08/12 09:28:09;;;;;;;5.63;4.57;;;40.70;39.70;;;;;;5051134;28;20516;-74
2022/08/12 09:30:36;;;;;;;4.40;3.60;;;40.50;40.00;;;;;;5038529;28;21022;-76
2022/08/12 09:33:03;;;;;;;8.27;6.50;;;40.80;37.90;;;;;;5044403;28;20561;-75
2022/08/12 09:35:32;;;;;;;6.07;4.40;;;40.90;38.20;;;;;;5043214;28;20438;-73
2022/08/12 09:38:02;;;;;;;4.40;4.00;;;40.70;38.30;;;;;;5046990;28;20478;-76
2022/08/12 09:40:30;;;;;;;9.63;8.13;;;40.80;39.30;;;;;;5045339;28;20934;-75
2022/08/12 09:45:45;;;;;;;7.63;4.30;;;40.30;39.00;;;;;;5042563;28;20508;-74
2022/08/12 09:48:16;;;;;;;6.20;4.07;;;39.70;39.90;;;;;;5039592;28;20926;-75
2022/08/12 09:50:44;;;;;;;7.43;4.30;;;39.30;40.80;;;;;;5047398;28;20466;-75
2022/08/12 09:53:15;;;;;;;9.17;3.90;;;39.20;41.50;;;;;;5046909;28;20486;-74
2022/08/12 09:55:46;;;;;;;4.30;4.00;;;39.30;41.20;;;;;;5036328;28;20477;-74
2022/08/12 09:58:15;;;;;;;5.53;4.47;;;39.50;41.50;;;;;;5048180;28;20936;-74
2022/08/12 10:00:42;;;;;;;6.20;3.53;;;39.20;40.90;;;;;;5047562;28;20548;-75
2022/08/12 10:03:11;;;;;;;3.77;3.10;;;38.90;40.80;;;;;;5045989;28;20980;-73
2022/08/12 10:05:41;;;;;;;7.50;3.70;;;39.20;41.30;;;;;;5048479;28;20532;-75
2022/08/12 10:08:10;;;;;;;4.80;3.23;;;39.60;41.40;;;;;;5060461;28;20988;-74
2022/08/12 10:13:40;;;;;;;7.10;3.30;;;39.70;38.00;;;;;;5054849;28;20512;-75
2022/08/12 10:16:09;;;;;;;3.40;3.10;;;39.50;38.00;;;;;;5042539;28;20438;-74
2022/08/12 10:18:36;;;;;;;4.97;3.20;;;39.10;38.60;;;;;;5039877;28;20951;-77
2022/08/12 10:21:07;;;;;;;8.10;3.77;;;39.20;40.20;;;;;;5044482;28;20446;-75
2022/08/12 10:23:34;;;;;;;3.73;3.10;;;39.30;40.30;;;;;;5041523;28;20492;-74
2022/08/12 10:31:32;;;;;;;3.13;2.83;;;39.70;37.10;;;;;;5053921;28;20441;-74
2022/08/12 10:33:58;;;;;;;4.03;3.07;;;39.50;36.20;;;;;;5053035;28;20524;-75
2022/08/12 10:36:26;;;;;;;6.00;3.00;;;39.10;36.50;;;;;;5053583;28;20461;-73
2022/08/12 10:38:53;;;;;;;2.97;2.67;;;38.80;36.30;;;;;;5055437;28;20445;-75
2022/08/12 10:44:06;;;;;;;8.40;3.20;;;38.20;36.70;;;;;;5019741;28;20816;-75
2022/08/12 10:46:34;;;;;;;2.50;2.30;;;37.20;38.20;;;;;;5050049;28;20801;-73
2022/08/12 10:49:01;;;;;;;3.60;3.17;;;36.30;39.40;;;;;;5046981;28;20495;-76
2022/08/12 10:51:30;;;;;;;3.57;3.23;;;35.60;40.40;;;;;;5049742;28;20435;-74
2022/08/12 10:53:57;;;;;;;4.70;3.00;;;35.10;41.50;;;;;;5053299;28;20815;-76
2022/08/12 10:56:25;;;;;;;3.10;2.70;;;34.90;40.50;;;;;;5052864;28;20525;-73
2022/08/12 10:58:54;;;;;;;3.40;2.50;;;34.60;39.10;;;;;;5044679;28;20453;-74
2022/08/12 11:01:22;;;;;;;8.73;2.40;;;34.30;38.90;;;;;;5045767;28;20473;-76
2022/08/12 11:03:48;;;;;;;3.77;2.70;;;34.30;39.40;;;;;;5049037;28;20553;-76
2022/08/12 11:06:20;;;;;;;3.83;2.43;;;33.90;39.60;;;;;;5052786;28;20466;-76
2022/08/12 11:08:48;;;;;;;2.73;2.37;;;33.90;40.40;;;;;;5048095;28;20442;-77
2022/08/12 11:11:16;;;;;;;3.00;2.80;;;33.80;41.50;;;;;;5044027;28;20449;-73
2022/08/12 11:13:45;;;;;;;3.27;2.70;;;33.90;42.10;;;;;;5046552;28;20481;-75
2022/08/12 11:16:16;;;;;;;11.93;3.20;;;33.90;42.10;;;;;;5049410;28;20467;-74
2022/08/12 11:18:43;;;;;;;3.60;2.73;;;33.90;42.30;;;;;;5052845;28;20889;-75
2022/08/12 11:21:10;;;;;;;3.33;2.30;;;33.70;40.70;;;;;;5047202;28;20835;-74
2022/08/12 11:23:37;;;;;;;2.30;2.07;;;33.80;42.00;;;;;;5044289;28;21041;-75
2022/08/12 11:26:05;;;;;;;4.70;2.47;;;33.80;41.30;;;;;;5051825;28;20527;-75
2022/08/12 11:28:32;;;;;;;3.97;2.93;;;33.70;41.10;;;;;;5043795;28;20438;-74
2022/08/12 11:31:01;;;;;;;2.87;2.03;;;33.70;41.20;;;;;;5046482;28;20438;-73
2022/08/12 11:33:28;;;;;;;3.30;2.50;;;33.50;41.00;;;;;;5052453;28;20573;-74
2022/08/12 11:35:54;;;;;;;9.13;3.00;;;33.40;41.90;;;;;;5052330;28;20461;-75
2022/08/12 11:38:21;;;;;;;2.50;2.30;;;33.30;40.60;;;;;;5052111;28;20481;-75
2022/08/12 11:40:49;;;;;;;5.53;2.93;;;33.10;41.20;;;;;;5047073;28;20453;-73
2022/08/12 11:43:15;;;;;;;5.57;2.80;;;33.10;41.90;;;;;;5045832;28;20481;-74
2022/08/12 11:45:42;;;;;;;6.73;2.50;;;33.20;42.30;;;;;;5048600;28;20807;-76
2022/08/12 11:48:10;;;;;;;2.87;2.30;;;33.30;40.50;;;;;;5045418;28;20554;-74
2022/08/12 11:50:37;;;;;;;4.43;2.37;;;33.30;41.00;;;;;;5044888;28;20472;-75
2022/08/12 11:53:04;;;;;;;3.17;2.17;;;33.40;41.20;;;;;;5045241;28;20500;-72
2022/08/12 11:55:31;;;;;;;5.33;2.37;;;33.40;40.20;;;;;;5044192;28;20537;-73
2022/08/12 11:57:58;;;;;;;2.33;2.13;;;33.20;40.00;;;;;;5047493;28;20442;-77
2022/08/12 12:00:26;;;;;;;3.00;2.00;;;33.30;40.30;;;;;;5049767;28;20454;-75
2022/08/12 12:02:53;;;;;;;5.43;2.57;;;33.30;39.90;;;;;;5043745;28;20549;-75
2022/08/12 12:05:21;;;;;;;10.73;4.10;;;33.20;40.20;;;;;;5042107;28;20561;-77
2022/08/12 12:07:48;;;;;;;5.37;2.37;;;33.00;40.40;;;;;;5054273;28;20931;-74
2022/08/12 12:10:18;;;;;;;4.53;2.40;;;32.60;40.30;;;;;;5049987;28;20481;-77
2022/08/12 12:12:46;;;;;;;3.83;3.00;;;32.60;41.10;;;;;;5050100;28;20548;-76
2022/08/12 12:15:13;;;;;;;3.87;2.07;;;32.80;41.30;;;;;;5047360;28;20823;-74
2022/08/12 12:17:42;;;;;;;6.10;2.50;;;32.80;40.30;;;;;;5046491;28;20469;-77
2022/08/12 12:20:11;;;;;;;2.17;1.97;;;32.60;40.90;;;;;;5046923;28;20953;-75
2022/08/12 12:22:41;;;;;;;4.67;2.30;;;32.60;40.90;;;;;;5054245;28;20540;-74
2022/08/12 12:25:09;;;;;;;2.57;2.20;;;32.60;40.90;;;;;;5055432;28;20529;-75
2022/08/12 12:27:48;;;;;;;3.57;2.53;;;32.50;40.60;;;;;;5036882;28;20448;-78
2022/08/12 12:30:15;;;;;;;2.87;2.30;;;32.50;40.90;;;;;;5057209;28;20453;-74
2022/08/12 12:32:45;;;;;;;2.73;2.47;;;32.40;41.40;;;;;;5043820;28;20539;-74
2022/08/12 12:35:12;;;;;;;2.33;2.10;;;32.60;41.30;;;;;;5047313;28;20465;-75
2022/08/12 12:37:57;;;;;;;4.40;2.23;;;32.70;41.50;;;;;;5050140;28;20452;-73
2022/08/12 12:40:24;;;;;;;3.33;2.00;;;32.60;40.70;;;;;;5049032;28;20458;-76
2022/08/12 12:42:51;;;;;;;2.33;2.13;;;32.40;40.50;;;;;;5040426;28;20561;-76
2022/08/12 12:45:19;;;;;;;2.90;2.07;;;32.30;40.60;;;;;;5043407;28;20813;-75
2022/08/12 12:47:58;;;;;;;2.20;2.00;;;32.40;40.90;;;;;;5051352;28;20438;-77
2022/08/12 12:50:26;;;;;;;4.70;2.10;;;32.40;41.50;;;;;;5048070;28;20481;-75
2022/08/12 12:52:53;;;;;;;2.30;2.10;;;32.40;41.30;;;;;;5046346;28;20524;-75
2022/08/12 12:55:23;;;;;;;2.17;1.87;;;32.40;40.90;;;;;;5049917;28;20456;-77
2022/08/12 12:57:50;;;;;;;4.10;2.60;;;32.40;41.30;;;;;;5054195;28;20521;-76
2022/08/12 13:00:18;;;;;;;3.40;1.97;;;32.40;41.60;;;;;;5061185;28;20536;-75
2022/08/12 13:02:51;;;;;;;3.80;2.27;;;32.30;41.60;;;;;;5046332;28;20541;-76
2022/08/12 13:05:24;;;;;;;2.60;2.20;;;32.30;41.30;;;;;;5045957;28;20500;-74
2022/08/12 13:07:53;;;;;;;2.90;2.30;;;32.30;41.20;;;;;;5046243;28;20449;-77
2022/08/12 13:10:22;;;;;;;4.50;2.70;;;32.30;40.90;;;;;;5051497;28;20447;-75
2022/08/12 13:12:49;;;;;;;2.77;2.40;;;32.20;40.90;;;;;;5050547;28;20556;-75
2022/08/12 13:15:16;;;;;;;4.70;2.63;;;32.20;40.70;;;;;;5043942;28;20451;-76
2022/08/12 13:17:46;;;;;;;10.30;2.87;;;32.20;41.20;;;;;;5042423;28;20434;-72
2022/08/12 13:20:14;;;;;;;3.77;2.47;;;32.20;41.20;;;;;;5047624;28;20944;-77
2022/08/12 13:22:41;;;;;;;4.53;2.90;;;32.10;40.90;;;;;;5040754;28;20542;-77
2022/08/12 13:25:09;;;;;;;2.37;1.87;;;32.10;40.80;;;;;;5046102;28;20917;-76
2022/08/12 13:27:44;;;;;;;3.20;2.60;;;32.20;41.10;;;;;;5044010;28;21171;-77
2022/08/12 13:30:14;;;;;;;6.07;2.87;;;32.20;40.80;;;;;;5044158;28;20446;-75
2022/08/12 13:32:44;;;;;;;8.60;2.63;;;32.20;41.40;;;;;;5044971;28;20491;-74
2022/08/12 13:35:14;;;;;;;2.73;2.27;;;32.40;42.00;;;;;;5043624;28;20443;-76
2022/08/12 13:37:41;;;;;;;4.00;1.90;;;32.40;41.90;;;;;;5043869;28;20873;-75
2022/08/12 13:40:10;;;;;;;7.07;2.63;;;32.30;42.00;;;;;;5034458;28;20889;-75
2022/08/12 13:42:39;;;;;;;5.93;2.40;;;32.30;41.60;;;;;;5041605;28;20447;-76
2022/08/12 13:45:07;;;;;;;5.87;2.90;;;32.40;41.90;;;;;;5047596;28;20956;-76
2022/08/12 13:47:54;;;;;;;2.53;2.27;;;32.30;41.10;;;;;;5042021;28;20501;-74
2022/08/12 13:50:22;;;;;;;3.20;2.03;;;32.20;41.00;;;;;;5042135;28;20534;-76
2022/08/12 13:52:49;;;;;;;3.00;2.53;;;32.20;40.70;;;;;;5041463;28;20516;-76
2022/08/12 13:55:16;;;;;;;2.50;2.03;;;32.20;41.50;;;;;;5047145;28;20468;-75
2022/08/12 13:57:44;;;;;;;5.07;2.70;;;32.20;41.60;;;;;;5046156;28;20482;-75
2022/08/12 14:00:13;;;;;;;2.20;2.00;;;32.20;41.90;;;;;;5050183;28;20939;-76
2022/08/12 14:02:40;;;;;;;3.77;2.33;;;32.30;42.20;;;;;;5048578;28;20984;-74
2022/08/12 14:05:08;;;;;;;4.97;2.50;;;32.30;42.00;;;;;;5046009;28;20456;-75
2022/08/12 14:07:50;;;;;;;2.73;2.07;;;32.30;41.90;;;;;;5047139;28;20475;-77
2022/08/12 14:10:37;;;;;;;3.37;3.07;;;32.30;41.30;;;;;;5052685;28;20466;-75
2022/08/12 14:13:10;;;;;;;4.50;2.20;;;32.30;40.90;;;;;;5055969;28;20497;-75
2022/08/12 14:15:38;;;;;;;3.43;3.07;;;32.30;41.00;;;;;;5049142;28;20478;-75
2022/08/12 14:18:11;;;;;;;3.23;2.60;;;32.20;41.10;;;;;;5047961;28;20584;-74
2022/08/12 14:20:38;;;;;;;2.57;2.20;;;32.10;40.60;;;;;;5045627;28;20518;-73
2022/08/12 14:23:05;;;;;;;4.83;2.50;;;32.10;40.80;;;;;;5048862;28;20564;-75
2022/08/12 14:25:33;;;;;;;5.50;3.50;;;32.00;40.90;;;;;;5060090;28;20445;-73
2022/08/12 14:28:09;;;;;;;3.30;2.80;;;31.90;41.30;;;;;;5053239;28;20529;-75
2022/08/12 14:30:42;;;;;;;3.23;2.93;;;31.70;41.50;;;;;;5048056;28;20481;-73
2022/08/12 14:33:09;;;;;;;2.93;2.60;;;31.80;41.60;;;;;;5050234;28;20533;-76
2022/08/12 14:35:36;;;;;;;5.13;2.43;;;31.70;41.70;;;;;;5051859;28;20461;-74
2022/08/12 14:38:16;;;;;;;3.40;2.80;;;31.80;41.60;;;;;;5049263;28;20447;-75
2022/08/12 14:40:43;;;;;;;3.40;2.50;;;31.90;42.20;;;;;;5041595;28;20529;-75